Lewiston Nez Perce County Airport Lewiston US
ICAO: KLWS
IATA: LWS
Category: Medium
Scheduled Services: Yes

Elevation: 1442 ft
TransAlt. 18000 ft.

Airport Communications:
ASOS:135.575
SEATTLE CNTR:123.95
CTAF:119.4
GND:121.9
BOISE RDO:122.35
TWR:119.4
UNICOM:122.95

KLWS Zoom In..

If you have problems with the map follow the link
https://www.worldairports.se/pages/airport.php?
ICAO=KLWS

Runways:

(A) RW 08 length 6512 ft width 150 ft
---- / hdg 83

(B) RW 12 length 5000 ft width 100 ft
---- / hdg 116

(C) RW 26 length 6512 ft width 150 ft
ILS 109.70 / hdg 263

(D) RW 30 length 5000 ft width 100 ft
---- / hdg 296

Location; KLWS
Day. 28 / Time. 13.56 Zulu
* Altimeter: 30.02
* Temperature: 06° c. 42.8°f.
* Wind from: 110° Speed 11 kn.
Dewpoint: 03° c.
Visibility: 10 Statute Miles.
Clouds: Overcast 6500 ft.

KLWS 281356Z AUTO 11011KT 10SM OVC065 06/03 A3002 RMK AO2 SLP172 T00560028 $


Wind From 110°
Speed 11 kn.

 
 
jpsmedia worldairports.se 2020   terms of use